Time;durP1;ratioP1;P1;durP2;ratioP2;P2;SDS_P1;SDS_P2;PMS_P1;PMS_P2;Temp;Humidity;BMP_temperature;BMP_pressure;BME280_temperature;BME280_humidity;BME280_pressure;Samples;Min_cycle;Max_cycle;Signal;HPM_P1;HPM_P2
2021/12/06 00:00:19;;;;;;;8.77;7.97;;;2.40;99.90;;;;;;5003672;28;20214;-74
2021/12/06 00:02:46;;;;;;;9.83;8.10;;;2.30;99.90;;;;;;5014863;28;20285;-75
2021/12/06 00:05:15;;;;;;;9.93;8.53;;;2.20;99.90;;;;;;5014856;28;20183;-74
2021/12/06 00:07:40;;;;;;;9.53;8.53;;;2.10;99.90;;;;;;5014761;28;20179;-76
2021/12/06 00:10:08;;;;;;;9.17;8.17;;;2.00;99.90;;;;;;4997072;28;20178;-75
2021/12/06 00:12:34;;;;;;;8.50;7.70;;;2.00;99.90;;;;;;4997538;28;20282;-73
2021/12/06 00:15:00;;;;;;;8.87;8.07;;;2.10;99.90;;;;;;4997090;28;20172;-74
2021/12/06 00:17:26;;;;;;;9.60;8.60;;;2.20;99.90;;;;;;5014675;28;20180;-74
2021/12/06 00:19:51;;;;;;;9.03;8.13;;;2.20;99.90;;;;;;5014135;28;20183;-74
2021/12/06 00:22:22;;;;;;;8.97;8.17;;;2.30;99.90;;;;;;4996865;28;20309;-74
2021/12/06 00:24:50;;;;;;;8.73;7.93;;;2.30;99.90;;;;;;5012998;28;20578;-74
2021/12/06 00:27:16;;;;;;;8.63;7.73;;;2.40;99.90;;;;;;4994237;28;20610;-74
2021/12/06 00:29:42;;;;;;;8.73;7.83;;;2.40;99.90;;;;;;5011484;28;20178;-73
2021/12/06 00:32:08;;;;;;;8.00;7.20;;;2.30;99.90;;;;;;5014024;28;20211;-74
2021/12/06 00:34:35;;;;;;;7.57;6.87;;;2.20;99.90;;;;;;5014296;28;20203;-74
2021/12/06 00:37:17;;;;;;;6.97;6.30;;;2.30;99.90;;;;;;5014173;28;20167;-74
2021/12/06 00:39:52;;;;;;;7.10;6.50;;;2.10;99.90;;;;;;5014372;28;20662;-73
2021/12/06 00:42:20;;;;;;;7.63;6.87;;;2.00;99.90;;;;;;5013837;28;20696;-74
2021/12/06 00:44:46;;;;;;;8.23;7.10;;;2.00;99.90;;;;;;5014123;28;20171;-74
2021/12/06 00:47:11;;;;;;;8.20;7.40;;;2.10;99.90;;;;;;4996458;28;20278;-74
2021/12/06 00:49:37;;;;;;;8.00;6.40;;;2.10;99.90;;;;;;4996373;28;20181;-73
2021/12/06 00:52:04;;;;;;;7.20;6.50;;;2.10;99.90;;;;;;5013940;28;20207;-74
2021/12/06 00:54:34;;;;;;;7.47;6.77;;;2.20;99.90;;;;;;5014132;28;20214;-74
2021/12/06 00:57:01;;;;;;;7.47;6.77;;;2.30;99.90;;;;;;5013513;28;20559;-74
2021/12/06 00:59:26;;;;;;;7.30;6.70;;;2.30;99.90;;;;;;5014012;28;20215;-75
2021/12/06 01:01:54;;;;;;;9.27;6.90;;;2.30;99.90;;;;;;4996848;28;20709;-74
2021/12/06 01:04:20;;;;;;;6.77;6.13;;;2.30;99.90;;;;;;5013797;28;20183;-74
2021/12/06 01:06:46;;;;;;;9.07;7.10;;;2.30;99.90;;;;;;5013840;28;20269;-74
2021/12/06 01:09:11;;;;;;;7.43;6.73;;;2.20;99.90;;;;;;4996506;28;20640;-74
2021/12/06 01:11:38;;;;;;;7.87;7.17;;;2.30;99.90;;;;;;4995972;28;20196;-74
2021/12/06 01:14:03;;;;;;;7.60;6.87;;;2.50;99.90;;;;;;5013682;28;20264;-73
2021/12/06 01:16:30;;;;;;;7.10;6.40;;;2.50;99.90;;;;;;5010986;28;20215;-73
2021/12/06 01:18:57;;;;;;;8.87;7.23;;;2.50;99.90;;;;;;5013614;28;20174;-73
2021/12/06 01:21:39;;;;;;;8.30;7.60;;;2.50;99.90;;;;;;5013626;28;20654;-74
2021/12/06 01:24:04;;;;;;;7.60;6.80;;;2.50;99.90;;;;;;5013514;28;20630;-74
2021/12/06 01:26:43;;;;;;;7.33;6.63;;;2.50;99.90;;;;;;5023628;28;20187;-74
2021/12/06 01:32:04;;;;;;;10.57;7.80;;;2.50;99.90;;;;;;5032309;28;20291;-74
2021/12/06 01:39:46;;;;;;;8.50;7.03;;;2.50;99.90;;;;;;5010838;28;20235;-73
2021/12/06 01:42:12;;;;;;;7.60;6.83;;;2.40;99.90;;;;;;5013184;28;20598;-74
2021/12/06 01:44:50;;;;;;;7.70;7.00;;;2.50;99.90;;;;;;5013349;28;20179;-74
2021/12/06 01:47:22;;;;;;;8.73;6.07;;;2.40;99.90;;;;;;5013496;28;20171;-74
2021/12/06 01:49:53;;;;;;;7.30;6.60;;;2.30;99.90;;;;;;5000032;28;20194;-74
2021/12/06 01:52:34;;;;;;;8.40;7.10;;;2.20;99.90;;;;;;5018491;28;20210;-74
2021/12/06 01:55:03;;;;;;;7.80;7.10;;;2.30;99.90;;;;;;5018434;28;20210;-74
2021/12/06 01:57:29;;;;;;;7.77;7.07;;;2.20;99.90;;;;;;5014110;28;20180;-74
2021/12/06 01:59:55;;;;;;;10.47;8.17;;;2.10;99.90;;;;;;4996096;28;20180;-73
2021/12/06 02:02:23;;;;;;;7.90;7.17;;;2.10;99.90;;;;;;5013054;28;20203;-74
2021/12/06 02:04:49;;;;;;;8.60;7.70;;;2.10;99.90;;;;;;4996075;28;20185;-74
2021/12/06 02:07:19;;;;;;;8.60;7.73;;;2.10;99.90;;;;;;4995589;28;20171;-75
2021/12/06 02:09:48;;;;;;;7.10;6.40;;;2.00;99.90;;;;;;5013073;28;20177;-74
2021/12/06 02:12:17;;;;;;;8.37;6.77;;;2.20;99.90;;;;;;5012963;28;20207;-74
2021/12/06 02:17:25;;;;;;;7.23;6.63;;;2.30;99.90;;;;;;5013377;28;20175;-74
2021/12/06 02:20:01;;;;;;;6.90;6.30;;;2.30;99.90;;;;;;5013026;28;20708;-74
2021/12/06 02:22:30;;;;;;;7.60;6.90;;;2.40;99.90;;;;;;5013168;28;20198;-75
2021/12/06 02:24:57;;;;;;;7.47;6.77;;;2.40;99.90;;;;;;5013214;28;20171;-75
2021/12/06 02:27:25;;;;;;;8.17;7.40;;;2.40;99.90;;;;;;5032763;28;20175;-74
2021/12/06 02:29:54;;;;;;;8.90;7.63;;;2.50;99.90;;;;;;5032672;28;20201;-74
2021/12/06 02:32:20;;;;;;;8.63;7.43;;;2.40;99.90;;;;;;5032536;28;20264;-74
2021/12/06 02:34:53;;;;;;;7.87;7.20;;;2.40;99.90;;;;;;5014935;28;20248;-74
2021/12/06 02:37:22;;;;;;;8.93;8.07;;;2.50;99.90;;;;;;5032483;28;20172;-75
2021/12/06 02:39:49;;;;;;;7.90;7.10;;;2.50;99.90;;;;;;5025761;28;20517;-73
2021/12/06 02:42:16;;;;;;;7.77;7.07;;;2.50;99.90;;;;;;5018989;28;20669;-75
2021/12/06 02:44:43;;;;;;;9.37;8.47;;;2.50;99.90;;;;;;5014952;28;20175;-75
2021/12/06 02:47:09;;;;;;;8.80;8.00;;;2.40;99.90;;;;;;5014338;28;20171;-74
2021/12/06 02:49:35;;;;;;;8.07;7.37;;;2.40;99.90;;;;;;5015776;28;20172;-73
2021/12/06 02:52:02;;;;;;;8.73;7.93;;;2.40;99.90;;;;;;5012588;28;20261;-74
2021/12/06 02:54:28;;;;;;;8.13;7.43;;;2.50;99.90;;;;;;4996173;28;20179;-74
2021/12/06 02:57:07;;;;;;;9.47;7.63;;;2.40;99.90;;;;;;4997746;28;20182;-73
2021/12/06 02:59:35;;;;;;;8.00;7.30;;;2.40;99.90;;;;;;5015726;28;20176;-73
2021/12/06 03:02:06;;;;;;;9.23;7.63;;;2.30;99.90;;;;;;4998416;28;20274;-74
2021/12/06 03:04:32;;;;;;;7.87;7.17;;;2.20;99.90;;;;;;5016083;28;20203;-74
2021/12/06 03:06:59;;;;;;;8.10;7.30;;;2.20;99.90;;;;;;5016067;28;20211;-73
2021/12/06 03:09:27;;;;;;;9.17;7.50;;;2.10;99.90;;;;;;4998195;28;20598;-74
2021/12/06 03:11:59;;;;;;;7.70;7.00;;;2.10;99.90;;;;;;5015707;28;20203;-74
2021/12/06 03:14:32;;;;;;;8.50;7.70;;;2.00;99.90;;;;;;5015817;28;20179;-74
2021/12/06 03:17:00;;;;;;;8.87;7.97;;;2.00;99.90;;;;;;4994626;28;20586;-74
2021/12/06 03:19:26;;;;;;;10.67;7.20;;;2.00;99.90;;;;;;4998246;28;20171;-74
2021/12/06 03:21:52;;;;;;;8.03;7.23;;;2.10;99.90;;;;;;5015610;28;20199;-73
2021/12/06 03:24:18;;;;;;;9.57;7.30;;;2.00;99.90;;;;;;5015681;28;20653;-73
2021/12/06 03:26:45;;;;;;;9.20;8.30;;;1.80;99.90;;;;;;4998448;28;20658;-74
2021/12/06 03:29:12;;;;;;;8.43;7.63;;;1.80;99.90;;;;;;4998006;28;20183;-74
2021/12/06 03:31:38;;;;;;;8.23;7.27;;;1.80;99.90;;;;;;5015322;28;20199;-73
2021/12/06 03:34:05;;;;;;;10.27;8.03;;;1.80;99.90;;;;;;5015515;28;20219;-74
2021/12/06 03:36:33;;;;;;;9.33;8.10;;;1.80;99.90;;;;;;4996155;28;20270;-73
2021/12/06 03:39:01;;;;;;;9.10;7.73;;;1.80;99.90;;;;;;5002163;28;20561;-73
2021/12/06 03:41:28;;;;;;;11.23;9.07;;;1.90;99.90;;;;;;5015501;28;20570;-73
2021/12/06 03:43:55;;;;;;;8.93;8.03;;;1.90;99.90;;;;;;4997654;28;20215;-74
2021/12/06 03:46:22;;;;;;;9.77;8.53;;;1.90;99.90;;;;;;5014884;28;20182;-74
2021/12/06 03:48:48;;;;;;;8.93;8.03;;;1.80;99.90;;;;;;5017886;28;20181;-74
2021/12/06 03:51:14;;;;;;;9.33;8.43;;;1.60;99.90;;;;;;5034853;28;20686;-73
2021/12/06 03:53:40;;;;;;;11.93;9.07;;;1.50;99.90;;;;;;5019392;28;20203;-74
2021/12/06 03:56:06;;;;;;;8.83;7.80;;;1.40;99.90;;;;;;5011692;28;20650;-75
2021/12/06 03:58:34;;;;;;;8.93;8.03;;;1.50;99.90;;;;;;5012828;28;20540;-74
2021/12/06 04:01:02;;;;;;;9.20;8.17;;;1.50;99.90;;;;;;5013006;28;20175;-74
2021/12/06 04:03:29;;;;;;;10.60;8.83;;;1.60;99.90;;;;;;5013579;28;20620;-74
2021/12/06 04:05:55;;;;;;;9.20;8.30;;;1.70;99.90;;;;;;5014746;28;20286;-72
2021/12/06 04:08:22;;;;;;;9.47;7.50;;;1.60;99.90;;;;;;5014863;28;20186;-70
2021/12/06 04:10:48;;;;;;;10.37;8.50;;;1.50;99.90;;;;;;5014580;28;20198;-73
2021/12/06 04:13:14;;;;;;;8.70;7.80;;;1.50;99.90;;;;;;4996920;28;20301;-71
2021/12/06 04:15:41;;;;;;;11.03;9.10;;;1.70;99.90;;;;;;5014568;28;20183;-72
2021/12/06 04:18:07;;;;;;;9.83;8.53;;;1.30;99.90;;;;;;4997365;28;20179;-71
2021/12/06 04:20:35;;;;;;;8.83;7.93;;;1.40;99.90;;;;;;4999438;28;20213;-70
2021/12/06 04:23:01;;;;;;;9.50;8.47;;;1.50;99.90;;;;;;5000638;28;20545;-74
2021/12/06 04:25:27;;;;;;;10.63;9.10;;;1.60;99.90;;;;;;4996892;28;20215;-74
2021/12/06 04:27:55;;;;;;;10.67;8.47;;;1.60;99.90;;;;;;5011610;28;20600;-73
2021/12/06 04:30:24;;;;;;;11.57;9.23;;;1.70;99.90;;;;;;5014929;28;20679;-73
2021/12/06 04:32:52;;;;;;;8.90;8.00;;;1.70;99.90;;;;;;5014789;28;20712;-72
2021/12/06 04:35:18;;;;;;;10.50;8.33;;;1.80;99.90;;;;;;5016892;28;20186;-72
2021/12/06 04:37:44;;;;;;;9.73;8.27;;;1.80;99.90;;;;;;5016697;28;20171;-71
2021/12/06 04:40:12;;;;;;;8.80;7.90;;;1.80;99.90;;;;;;5018032;28;20178;-72
2021/12/06 04:42:38;;;;;;;10.13;8.63;;;1.90;99.90;;;;;;5056264;22;20538;-76
2021/12/06 04:45:04;;;;;;;11.67;9.57;;;1.90;99.90;;;;;;5011478;28;20307;-75
2021/12/06 04:47:30;;;;;;;10.00;8.60;;;1.90;99.90;;;;;;5024043;28;20171;-74
2021/12/06 04:49:56;;;;;;;9.43;8.53;;;1.90;99.90;;;;;;5014062;28;20524;-74
2021/12/06 04:52:22;;;;;;;10.10;8.27;;;1.90;99.90;;;;;;5014028;28;20748;-74
2021/12/06 04:54:51;;;;;;;11.10;8.77;;;1.90;99.90;;;;;;5014078;28;20653;-74
2021/12/06 04:57:20;;;;;;;12.30;8.10;;;1.90;99.90;;;;;;5014044;28;20195;-74
2021/12/06 04:59:56;;;;;;;8.13;7.33;;;2.00;99.90;;;;;;5014136;28;20171;-74
2021/12/06 05:02:30;;;;;;;8.83;7.93;;;2.00;99.90;;;;;;5011399;28;20257;-74
2021/12/06 05:05:00;;;;;;;9.77;7.93;;;2.00;99.90;;;;;;5013869;28;20182;-74
2021/12/06 05:07:37;;;;;;;9.90;8.53;;;2.00;99.90;;;;;;5010997;28;20187;-75
2021/12/06 05:10:07;;;;;;;9.17;8.27;;;1.90;99.90;;;;;;4995222;28;20595;-76
2021/12/06 05:12:33;;;;;;;10.20;8.70;;;2.00;99.90;;;;;;5028511;28;20270;-76
2021/12/06 05:14:59;;;;;;;9.80;8.80;;;2.10;99.90;;;;;;5013555;28;20201;-77
2021/12/06 05:17:26;;;;;;;10.63;9.50;;;1.90;99.90;;;;;;5014892;28;20190;-77
2021/12/06 05:19:52;;;;;;;10.83;9.13;;;1.80;99.90;;;;;;5011991;28;20694;-75
2021/12/06 05:22:18;;;;;;;10.03;9.00;;;1.90;99.90;;;;;;5010430;28;20239;-75
2021/12/06 05:24:44;;;;;;;12.10;9.20;;;1.90;99.90;;;;;;5030182;28;20178;-76
2021/12/06 05:27:10;;;;;;;10.00;9.00;;;1.70;99.90;;;;;;5032443;28;20184;-76
2021/12/06 05:29:37;;;;;;;10.23;8.73;;;1.70;99.90;;;;;;5026546;28;20182;-75
2021/12/06 05:32:03;;;;;;;9.97;8.83;;;1.70;99.90;;;;;;4989720;28;20230;-77
2021/12/06 05:34:38;;;;;;;11.33;9.20;;;1.60;99.90;;;;;;4998017;28;20241;-76
2021/12/06 05:37:10;;;;;;;11.57;9.43;;;1.60;99.90;;;;;;5021007;28;20175;-74
2021/12/06 05:39:37;;;;;;;10.80;9.67;;;1.60;99.90;;;;;;4995930;28;20183;-76
2021/12/06 05:42:09;;;;;;;10.43;9.43;;;1.60;99.90;;;;;;4994343;28;20266;-75
2021/12/06 05:44:35;;;;;;;10.67;9.30;;;1.60;99.90;;;;;;5013687;28;20199;-74
2021/12/06 05:47:01;;;;;;;10.67;9.57;;;1.70;99.90;;;;;;5013183;28;20187;-75
2021/12/06 05:49:27;;;;;;;12.53;10.13;;;1.70;99.90;;;;;;5003768;28;20317;-75
2021/12/06 05:51:53;;;;;;;10.83;9.73;;;1.70;99.90;;;;;;5013182;28;20665;-75
2021/12/06 05:54:20;;;;;;;11.63;10.20;;;1.70;99.90;;;;;;5013150;28;20278;-75
2021/12/06 05:56:47;;;;;;;10.47;9.47;;;1.70;99.90;;;;;;5013876;28;20207;-75
2021/12/06 05:59:13;;;;;;;12.13;10.53;;;1.80;99.90;;;;;;5012152;28;20185;-75
2021/12/06 06:01:39;;;;;;;11.23;10.03;;;1.80;99.90;;;;;;5024585;28;20205;-75
2021/12/06 06:04:04;;;;;;;10.43;9.33;;;1.80;99.90;;;;;;4992936;28;20656;-77
2021/12/06 06:06:32;;;;;;;9.97;8.93;;;1.90;99.90;;;;;;5027034;28;20657;-76
2021/12/06 06:08:59;;;;;;;10.00;8.70;;;1.80;99.90;;;;;;5011208;28;20171;-76
2021/12/06 06:11:25;;;;;;;9.97;8.83;;;1.90;99.90;;;;;;5021008;28;20191;-76
2021/12/06 06:13:52;;;;;;;10.97;9.33;;;1.80;99.90;;;;;;5013042;28;20617;-76
2021/12/06 06:16:20;;;;;;;10.27;9.27;;;1.90;99.90;;;;;;5013100;28;20652;-74
2021/12/06 06:18:48;;;;;;;10.67;9.57;;;1.90;99.90;;;;;;5015435;28;20238;-74
2021/12/06 06:21:15;;;;;;;11.43;10.23;;;1.90;99.90;;;;;;5018535;28;20577;-74
2021/12/06 06:23:41;;;;;;;13.00;11.10;;;1.80;99.90;;;;;;5000240;28;20199;-76
2021/12/06 06:26:07;;;;;;;16.53;13.77;;;1.70;99.90;;;;;;5017599;28;20545;-77
2021/12/06 06:28:36;;;;;;;13.77;12.30;;;1.60;99.90;;;;;;4998034;28;20183;-74
2021/12/06 06:31:02;;;;;;;15.67;11.93;;;1.50;99.90;;;;;;5004041;28;20229;-75
2021/12/06 06:33:29;;;;;;;12.70;10.77;;;1.60;99.90;;;;;;5030149;28;20187;-76
2021/12/06 06:35:55;;;;;;;10.83;9.57;;;1.60;99.90;;;;;;5017703;28;20170;-77
2021/12/06 06:38:22;;;;;;;13.27;10.80;;;1.70;99.90;;;;;;5032003;28;20181;-76
2021/12/06 06:40:49;;;;;;;12.47;10.10;;;1.70;99.90;;;;;;5017052;28;20181;-76
2021/12/06 06:43:16;;;;;;;8.97;7.57;;;1.80;99.90;;;;;;5018517;28;20216;-77
2021/12/06 06:45:42;;;;;;;8.07;6.90;;;1.70;99.90;;;;;;4999835;28;20842;-76
2021/12/06 06:48:08;;;;;;;13.27;9.40;;;1.70;99.90;;;;;;4999476;28;20179;-75
2021/12/06 06:50:34;;;;;;;8.93;7.33;;;1.70;99.90;;;;;;5016622;28;20568;-76
2021/12/06 06:53:00;;;;;;;8.53;6.97;;;1.80;99.90;;;;;;5017055;28;20274;-76
2021/12/06 06:55:26;;;;;;;7.77;6.97;;;1.80;99.90;;;;;;5017418;28;20222;-77
2021/12/06 06:57:52;;;;;;;7.27;6.13;;;1.80;99.90;;;;;;4999109;28;20178;-76
2021/12/06 07:00:31;;;;;;;7.13;6.43;;;1.80;99.90;;;;;;5016995;28;20580;-76
2021/12/06 07:02:56;;;;;;;7.60;6.90;;;1.80;99.90;;;;;;4999838;28;20200;-76
2021/12/06 07:05:23;;;;;;;8.63;7.70;;;1.80;99.90;;;;;;5033299;28;20220;-76
2021/12/06 07:07:48;;;;;;;7.63;6.93;;;1.80;99.90;;;;;;5032316;28;20166;-77
2021/12/06 07:10:14;;;;;;;7.53;6.77;;;1.80;99.90;;;;;;5030098;28;20569;-77
2021/12/06 07:12:45;;;;;;;8.10;7.37;;;1.80;99.90;;;;;;5016244;28;20212;-75
2021/12/06 07:15:13;;;;;;;7.57;6.77;;;1.80;99.90;;;;;;5029705;28;20656;-75
2021/12/06 07:17:40;;;;;;;7.30;6.60;;;1.90;99.90;;;;;;5012872;28;20231;-75
2021/12/06 07:20:07;;;;;;;7.33;6.63;;;1.80;99.90;;;;;;5014597;28;20206;-76
2021/12/06 07:22:33;;;;;;;7.20;6.57;;;1.90;99.90;;;;;;5030810;28;20208;-75
2021/12/06 07:24:58;;;;;;;7.73;7.00;;;1.90;99.90;;;;;;5010566;28;20170;-76
2021/12/06 07:27:24;;;;;;;7.20;6.60;;;1.90;99.90;;;;;;5033801;28;20200;-76
2021/12/06 07:29:50;;;;;;;7.07;6.40;;;2.00;99.90;;;;;;5030723;28;20186;-76
2021/12/06 07:32:15;;;;;;;7.63;6.83;;;2.00;99.90;;;;;;5011484;28;20218;-76
2021/12/06 07:34:41;;;;;;;6.87;6.20;;;2.10;99.90;;;;;;5006566;28;20311;-76
2021/12/06 07:37:07;;;;;;;7.50;6.13;;;2.00;99.90;;;;;;5032450;28;20692;-76
2021/12/06 07:39:33;;;;;;;6.83;6.20;;;2.00;99.90;;;;;;5032829;28;20635;-77
2021/12/06 07:41:59;;;;;;;7.00;6.30;;;2.00;99.90;;;;;;5031107;28;20210;-76
2021/12/06 07:44:25;;;;;;;7.60;6.13;;;2.10;99.90;;;;;;5015589;28;20587;-76
2021/12/06 07:46:52;;;;;;;6.67;5.97;;;2.10;99.90;;;;;;5033970;28;20174;-76
2021/12/06 07:49:19;;;;;;;6.70;6.10;;;2.00;99.90;;;;;;5032293;28;20167;-75
2021/12/06 07:51:45;;;;;;;7.80;6.47;;;2.00;99.90;;;;;;5029409;28;20253;-77
2021/12/06 07:54:13;;;;;;;7.40;6.60;;;1.90;99.90;;;;;;5007347;28;20200;-76
2021/12/06 07:56:40;;;;;;;7.07;6.30;;;1.80;99.90;;;;;;5009197;28;20232;-76
2021/12/06 07:59:06;;;;;;;7.07;6.37;;;1.80;99.90;;;;;;5027206;28;20166;-77
2021/12/06 08:01:32;;;;;;;8.47;6.77;;;1.80;99.90;;;;;;5008612;28;20265;-76
2021/12/06 08:03:59;;;;;;;6.80;6.20;;;1.80;99.90;;;;;;5028750;28;20281;-75
2021/12/06 08:06:26;;;;;;;8.07;7.13;;;1.90;99.90;;;;;;5026675;28;20444;-75
2021/12/06 08:08:53;;;;;;;8.67;7.53;;;1.90;99.90;;;;;;5029903;28;20179;-75
2021/12/06 08:11:21;;;;;;;9.77;6.97;;;1.90;99.90;;;;;;5007431;28;20249;-79
2021/12/06 08:13:50;;;;;;;7.63;6.90;;;2.00;99.90;;;;;;4997173;28;20291;-77
2021/12/06 08:16:21;;;;;;;7.73;6.93;;;2.00;99.90;;;;;;5027612;28;20253;-76
2021/12/06 08:18:47;;;;;;;7.57;6.77;;;2.10;99.90;;;;;;5013928;28;20286;-74
2021/12/06 08:21:16;;;;;;;8.07;7.30;;;2.10;99.90;;;;;;5008438;28;20279;-75
2021/12/06 08:23:43;;;;;;;7.90;7.10;;;2.00;99.90;;;;;;5029153;28;20206;-74
2021/12/06 08:26:10;;;;;;;7.40;6.70;;;2.10;99.90;;;;;;5000838;28;20199;-75
2021/12/06 08:28:37;;;;;;;6.93;6.27;;;2.10;99.90;;;;;;5028779;28;20629;-74
2021/12/06 08:31:05;;;;;;;8.43;7.53;;;2.00;99.90;;;;;;5027984;28;20202;-74
2021/12/06 08:33:32;;;;;;;10.10;7.50;;;2.00;99.90;;;;;;5023963;28;20195;-73
2021/12/06 08:35:58;;;;;;;11.00;7.80;;;2.00;99.90;;;;;;5028948;28;20294;-74
2021/12/06 08:38:27;;;;;;;9.67;7.90;;;2.30;99.90;;;;;;5024699;28;20186;-74
2021/12/06 08:40:54;;;;;;;8.97;7.20;;;2.10;99.90;;;;;;5029596;28;20176;-76
2021/12/06 08:43:21;;;;;;;7.33;6.63;;;2.10;99.90;;;;;;5026623;28;20841;-77
2021/12/06 08:46:03;;;;;;;8.07;7.27;;;2.20;99.90;;;;;;5010182;28;20265;-75
2021/12/06 08:48:31;;;;;;;9.90;7.80;;;2.20;99.90;;;;;;5022230;28;20178;-74
2021/12/06 08:51:02;;;;;;;8.20;7.37;;;2.10;99.90;;;;;;5027057;28;20240;-74
2021/12/06 08:53:28;;;;;;;11.23;8.23;;;2.00;99.90;;;;;;5025023;28;20541;-75
2021/12/06 08:55:54;;;;;;;9.90;8.53;;;2.00;99.90;;;;;;5022088;28;20239;-74
2021/12/06 08:58:20;;;;;;;9.33;7.70;;;1.90;99.90;;;;;;5028566;28;20266;-73
2021/12/06 09:00:46;;;;;;;10.10;8.40;;;1.90;99.90;;;;;;5003518;28;20198;-75
2021/12/06 09:03:13;;;;;;;10.03;8.37;;;2.00;99.90;;;;;;5006326;28;20206;-73
2021/12/06 09:05:43;;;;;;;9.50;8.50;;;2.00;99.90;;;;;;5010816;28;20201;-73
2021/12/06 09:08:09;;;;;;;11.30;8.90;;;2.10;99.90;;;;;;5027440;28;20241;-75
2021/12/06 09:10:37;;;;;;;9.50;8.53;;;2.20;99.90;;;;;;5030101;28;20221;-73
2021/12/06 09:13:04;;;;;;;11.00;8.60;;;2.10;99.90;;;;;;5009410;28;20203;-74
2021/12/06 09:15:31;;;;;;;9.50;8.00;;;2.20;99.90;;;;;;5004133;28;20179;-74
2021/12/06 09:17:58;;;;;;;11.27;8.83;;;2.20;99.90;;;;;;5016812;28;20274;-74
2021/12/06 09:20:27;;;;;;;11.47;9.67;;;2.30;99.90;;;;;;5009301;28;20178;-76
2021/12/06 09:22:53;;;;;;;13.03;8.73;;;2.30;99.90;;;;;;4999192;28;20215;-75
2021/12/06 09:25:20;;;;;;;10.57;8.87;;;2.30;99.90;;;;;;5028066;28;20178;-75
2021/12/06 09:27:45;;;;;;;11.10;9.03;;;2.40;99.90;;;;;;5004946;28;20266;-73
2021/12/06 09:30:16;;;;;;;10.37;9.27;;;2.40;99.90;;;;;;5027160;28;20589;-74
2021/12/06 09:32:42;;;;;;;12.80;10.20;;;2.40;99.90;;;;;;5030271;28;20293;-74
2021/12/06 09:35:11;;;;;;;14.13;9.93;;;2.40;99.90;;;;;;5020832;28;20198;-73
2021/12/06 09:37:39;;;;;;;10.80;9.70;;;2.40;99.90;;;;;;5028231;28;20189;-74
2021/12/06 09:40:06;;;;;;;10.00;8.43;;;2.50;99.90;;;;;;5024553;28;20179;-74
2021/12/06 09:42:35;;;;;;;8.73;7.50;;;2.50;99.90;;;;;;5003348;28;22260;-76
2021/12/06 09:45:03;;;;;;;8.33;7.43;;;2.40;99.90;;;;;;5018512;28;20528;-76
2021/12/06 09:47:31;;;;;;;10.47;9.37;;;2.40;99.90;;;;;;5011086;28;20308;-75
2021/12/06 09:49:56;;;;;;;12.80;7.70;;;2.40;99.90;;;;;;5028697;28;20218;-73
2021/12/06 09:52:22;;;;;;;9.17;8.27;;;2.40;99.90;;;;;;5003780;28;20607;-74
2021/12/06 09:54:48;;;;;;;8.80;7.90;;;2.40;99.90;;;;;;5032546;28;20203;-74
2021/12/06 09:57:14;;;;;;;8.63;7.73;;;2.50;99.90;;;;;;5028067;28;20250;-73
2021/12/06 09:59:42;;;;;;;13.77;9.17;;;2.50;99.90;;;;;;5012711;28;20278;-74
2021/12/06 10:02:17;;;;;;;9.23;8.17;;;2.50;99.90;;;;;;5009873;28;20668;-76
2021/12/06 10:04:48;;;;;;;10.60;8.50;;;2.40;99.90;;;;;;5027989;28;20178;-75
2021/12/06 10:07:14;;;;;;;11.13;8.33;;;2.50;99.90;;;;;;5023008;28;20192;-76
2021/12/06 10:09:42;;;;;;;11.53;9.10;;;2.50;99.90;;;;;;5017389;28;20178;-76
2021/12/06 10:12:09;;;;;;;11.70;9.50;;;2.50;99.90;;;;;;4999814;28;20206;-76
2021/12/06 10:14:36;;;;;;;12.13;9.23;;;2.60;99.90;;;;;;5017310;28;20214;-76
2021/12/06 10:17:04;;;;;;;11.43;8.83;;;2.60;99.90;;;;;;5017649;28;20170;-75
2021/12/06 10:19:31;;;;;;;10.23;7.83;;;2.60;99.90;;;;;;5014897;28;20179;-75
2021/12/06 10:21:56;;;;;;;10.23;8.57;;;2.60;99.90;;;;;;5005666;28;20185;-77
2021/12/06 10:24:26;;;;;;;9.33;8.00;;;2.60;99.90;;;;;;4994121;28;20739;-77
2021/12/06 10:27:03;;;;;;;9.30;7.77;;;2.70;99.90;;;;;;5008407;28;20622;-77
2021/12/06 10:29:38;;;;;;;8.67;7.50;;;2.80;99.90;;;;;;5023116;28;20178;-76
2021/12/06 10:32:12;;;;;;;8.80;7.90;;;2.70;99.90;;;;;;5009972;28;20235;-74
2021/12/06 10:34:44;;;;;;;7.83;7.03;;;2.70;99.90;;;;;;4997640;28;20709;-76
2021/12/06 10:37:45;;;;;;;9.40;7.33;;;2.80;99.90;;;;;;4998060;28;20598;-76
2021/12/06 10:40:40;;;;;;;7.53;6.67;;;2.80;99.90;;;;;;5008590;28;20198;-75
2021/12/06 10:43:10;;;;;;;7.83;7.10;;;2.80;99.90;;;;;;4994978;28;20222;-76
2021/12/06 10:45:47;;;;;;;10.10;7.27;;;2.90;99.90;;;;;;5011574;28;20186;-76
2021/12/06 10:48:18;;;;;;;9.27;7.40;;;2.90;99.90;;;;;;4998899;28;20189;-75
2021/12/06 10:50:53;;;;;;;7.57;6.13;;;2.90;99.90;;;;;;4994384;28;20224;-76
2021/12/06 10:53:28;;;;;;;7.77;6.97;;;2.90;99.90;;;;;;4993017;28;20670;-76
2021/12/06 10:55:57;;;;;;;7.07;6.37;;;2.90;99.90;;;;;;5010692;28;20183;-75
2021/12/06 11:00:50;;;;;;;6.97;6.37;;;2.90;99.90;;;;;;5050085;23;20306;-78
2021/12/06 11:03:40;;;;;;;7.60;6.80;;;2.80;99.90;;;;;;5037727;28;20175;-78
2021/12/06 11:06:14;;;;;;;8.93;6.90;;;2.80;99.90;;;;;;5013590;28;20178;-76
2021/12/06 11:08:41;;;;;;;7.23;6.37;;;2.80;99.90;;;;;;5030262;28;20671;-77
2021/12/06 11:11:17;;;;;;;7.70;6.90;;;2.70;99.90;;;;;;5035171;28;20588;-76
2021/12/06 11:13:49;;;;;;;7.80;6.70;;;2.70;99.90;;;;;;5023256;28;20727;-76
2021/12/06 11:16:26;;;;;;;7.33;6.57;;;2.80;99.90;;;;;;5031499;28;20202;-76
2021/12/06 11:18:52;;;;;;;8.70;6.60;;;3.00;99.90;;;;;;5034188;28;20198;-77
2021/12/06 11:21:26;;;;;;;7.07;6.37;;;2.90;99.90;;;;;;5015962;28;20594;-77
2021/12/06 11:24:22;;;;;;;8.47;7.00;;;3.10;99.90;;;;;;5007626;28;20200;-77
2021/12/06 11:26:53;;;;;;;7.47;5.70;;;3.00;99.90;;;;;;5028775;28;20274;-77
2021/12/06 11:29:19;;;;;;;7.00;5.83;;;3.00;99.90;;;;;;5029896;28;20191;-78
2021/12/06 11:31:58;;;;;;;6.53;5.93;;;3.00;99.90;;;;;;5034297;28;20198;-76
2021/12/06 11:34:31;;;;;;;8.30;6.33;;;3.10;99.90;;;;;;5015206;28;20186;-77
2021/12/06 11:36:57;;;;;;;5.50;5.00;;;3.10;99.90;;;;;;5032584;28;20654;-76
2021/12/06 11:39:24;;;;;;;5.30;4.80;;;3.10;99.90;;;;;;5032313;28;20192;-76
2021/12/06 11:41:56;;;;;;;5.57;4.97;;;3.20;99.90;;;;;;5006036;28;20209;-78
2021/12/06 11:44:34;;;;;;;8.43;5.50;;;3.20;99.90;;;;;;5014137;28;20254;-76
2021/12/06 11:47:05;;;;;;;6.40;4.90;;;3.30;99.90;;;;;;5030891;28;20190;-77
2021/12/06 11:49:35;;;;;;;7.53;5.63;;;3.30;99.90;;;;;;5030132;28;20225;-76
2021/12/06 11:52:01;;;;;;;7.20;5.47;;;3.30;99.90;;;;;;5008221;28;20297;-76
2021/12/06 11:54:35;;;;;;;6.67;4.80;;;3.40;99.90;;;;;;5013252;28;20189;-77
2021/12/06 11:57:14;;;;;;;6.37;5.10;;;3.50;99.90;;;;;;5005533;28;20586;-76
2021/12/06 12:00:05;;;;;;;5.83;5.27;;;3.60;99.90;;;;;;5027301;28;20354;-76
2021/12/06 12:02:41;;;;;;;5.93;5.33;;;3.60;99.90;;;;;;4996283;28;20183;-77
2021/12/06 12:05:15;;;;;;;7.00;5.23;;;3.70;99.90;;;;;;5029867;28;20198;-76
2021/12/06 12:07:55;;;;;;;6.47;5.73;;;3.70;99.90;;;;;;5034032;28;20176;-76
2021/12/06 12:10:29;;;;;;;7.87;5.90;;;3.70;99.90;;;;;;5033060;28;20196;-76
2021/12/06 12:12:55;;;;;;;5.40;4.90;;;3.70;99.90;;;;;;5011797;28;20182;-77
2021/12/06 12:15:20;;;;;;;5.73;5.13;;;3.80;99.90;;;;;;5006310;28;20182;-76
2021/12/06 12:17:49;;;;;;;4.83;4.33;;;3.80;99.90;;;;;;5016248;28;20708;-76
2021/12/06 12:20:15;;;;;;;5.27;4.77;;;3.80;99.90;;;;;;5034142;28;20250;-76
2021/12/06 12:22:48;;;;;;;5.57;4.73;;;3.80;99.90;;;;;;5033691;28;20183;-77
2021/12/06 12:25:22;;;;;;;4.77;4.27;;;3.80;99.90;;;;;;5024095;28;20175;-76
2021/12/06 12:28:36;;;;;;;5.63;4.57;;;3.80;99.90;;;;;;5028865;28;20188;-77
2021/12/06 12:30:36;;;;;;;5.63;4.70;;;3.90;99.90;;;;;;5027496;28;20210;-77
2021/12/06 12:33:04;;;;;;;4.80;4.30;;;4.30;99.90;;;;;;5006452;28;20203;-77
2021/12/06 12:35:31;;;;;;;4.47;4.07;;;3.90;99.90;;;;;;5017554;28;20174;-77
2021/12/06 12:37:59;;;;;;;5.17;4.67;;;3.90;99.90;;;;;;5029381;28;20192;-77
2021/12/06 12:40:36;;;;;;;5.70;4.70;;;3.90;99.90;;;;;;5035104;28;20560;-77
2021/12/06 12:43:09;;;;;;;6.27;5.07;;;3.90;99.90;;;;;;5032082;28;20183;-78
2021/12/06 12:45:38;;;;;;;5.20;4.70;;;4.00;99.90;;;;;;5034933;28;20175;-77
2021/12/06 12:48:04;;;;;;;4.57;3.73;;;4.10;99.90;;;;;;5015413;28;20259;-77
2021/12/06 12:50:30;;;;;;;5.37;4.40;;;4.20;99.90;;;;;;5017450;28;20232;-77
2021/12/06 12:52:59;;;;;;;4.87;4.03;;;4.20;99.90;;;;;;5017907;28;20195;-78
2021/12/06 12:55:32;;;;;;;4.40;4.00;;;4.20;99.90;;;;;;5020332;28;20670;-77
2021/12/06 12:58:26;;;;;;;5.83;5.20;;;4.20;99.90;;;;;;5027200;28;20254;-78
2021/12/06 13:01:03;;;;;;;5.40;4.90;;;4.30;99.90;;;;;;4972787;28;1117205;-77
2021/12/06 13:03:50;;;;;;;7.13;5.20;;;4.20;99.90;;;;;;5001151;28;20200;-78
2021/12/06 13:06:23;;;;;;;6.47;5.10;;;4.20;99.90;;;;;;5018956;28;20199;-78
2021/12/06 13:08:55;;;;;;;5.07;4.57;;;4.20;99.90;;;;;;5020008;28;20806;-78
2021/12/06 13:11:49;;;;;;;5.30;4.67;;;4.20;99.90;;;;;;5014866;28;20204;-78
2021/12/06 13:14:32;;;;;;;5.37;3.87;;;4.10;99.90;;;;;;5009809;28;20234;-78